Time;durP1;ratioP1;P1;durP2;ratioP2;P2;SDS_P1;SDS_P2;PMS_P1;PMS_P2;Temp;Humidity;BMP_temperature;BMP_pressure;BME280_temperature;BME280_humidity;BME280_pressure;Samples;Min_cycle;Max_cycle;Signal;HPM_P1;HPM_P2
2023/04/23 00:01:19;;;;;;;17.50;15.70;;;14.90;99.90;;;;;;6185619;23;20160;-71
2023/04/23 00:03:48;;;;;;;17.70;15.90;;;14.80;99.90;;;;;;6185886;23;20534;-70
2023/04/23 00:06:16;;;;;;;18.20;16.30;;;14.70;99.90;;;;;;6185332;23;20184;-70
2023/04/23 00:08:45;;;;;;;15.55;14.10;;;14.70;99.90;;;;;;6185421;23;20204;-70
2023/04/23 00:11:12;;;;;;;18.20;16.30;;;14.60;99.90;;;;;;6184274;23;20164;-69
2023/04/23 00:13:40;;;;;;;16.70;15.00;;;14.50;99.90;;;;;;6185793;23;20161;-69
2023/04/23 00:16:09;;;;;;;19.15;17.17;;;14.40;99.90;;;;;;6186111;23;20165;-69
2023/04/23 00:18:36;;;;;;;17.23;15.35;;;14.30;99.90;;;;;;6185402;23;20717;-70
2023/04/23 00:21:04;;;;;;;18.60;16.15;;;14.30;99.90;;;;;;6184525;23;20164;-69
2023/04/23 00:23:31;;;;;;;19.50;17.50;;;14.30;99.90;;;;;;6185808;23;20239;-69
2023/04/23 00:25:59;;;;;;;20.67;18.58;;;14.20;99.90;;;;;;6186356;23;20252;-70
2023/04/23 00:28:26;;;;;;;21.73;19.52;;;14.10;99.90;;;;;;6185442;23;20235;-71
2023/04/23 00:30:53;;;;;;;22.30;19.90;;;14.00;99.90;;;;;;6185194;23;20189;-70
2023/04/23 00:33:20;;;;;;;20.30;18.17;;;14.00;99.90;;;;;;6185801;23;20168;-70
2023/04/23 00:35:47;;;;;;;23.73;18.38;;;14.00;99.90;;;;;;6184668;23;20244;-70
2023/04/23 00:38:14;;;;;;;20.75;18.75;;;14.00;99.90;;;;;;6186347;23;20243;-70
2023/04/23 00:40:41;;;;;;;20.65;18.55;;;14.00;99.90;;;;;;6184614;23;20663;-70
2023/04/23 00:43:10;;;;;;;23.48;20.80;;;14.00;99.90;;;;;;6185985;23;20203;-71
2023/04/23 00:45:37;;;;;;;27.33;24.48;;;14.00;99.90;;;;;;6185673;23;20160;-70
2023/04/23 00:48:05;;;;;;;30.27;27.10;;;13.90;99.90;;;;;;6185122;23;20242;-69
2023/04/23 00:50:32;;;;;;;23.48;21.05;;;14.00;99.90;;;;;;6185376;23;20161;-70
2023/04/23 00:52:59;;;;;;;25.08;22.40;;;14.00;99.90;;;;;;6185588;23;20165;-69
2023/04/23 00:55:26;;;;;;;24.83;22.10;;;13.90;99.90;;;;;;6185573;23;20679;-71
2023/04/23 00:57:54;;;;;;;24.75;21.90;;;13.80;99.90;;;;;;6185663;23;20263;-70
2023/04/23 01:00:22;;;;;;;27.95;24.45;;;13.70;99.90;;;;;;6184921;23;20208;-70
2023/04/23 01:02:51;;;;;;;28.45;24.63;;;13.70;99.90;;;;;;6185622;23;20223;-70
2023/04/23 01:05:20;;;;;;;30.98;25.95;;;13.70;99.90;;;;;;6185066;23;20168;-70
2023/04/23 01:07:47;;;;;;;31.77;24.15;;;13.60;99.90;;;;;;6185178;23;20196;-69
2023/04/23 01:10:14;;;;;;;31.70;25.63;;;13.50;99.90;;;;;;6184392;23;20582;-70
2023/04/23 01:12:41;;;;;;;31.42;26.33;;;13.50;99.90;;;;;;6182960;23;20180;-70
2023/04/23 01:15:09;;;;;;;33.95;25.85;;;13.30;99.90;;;;;;6185212;23;20247;-71
2023/04/23 01:17:38;;;;;;;31.50;27.48;;;13.30;99.90;;;;;;6185318;23;20329;-71
2023/04/23 01:20:07;;;;;;;31.33;26.08;;;13.30;99.90;;;;;;6184702;23;20199;-71
2023/04/23 01:22:36;;;;;;;32.72;25.70;;;13.20;99.90;;;;;;6185636;23;20175;-71
2023/04/23 01:25:03;;;;;;;33.15;27.73;;;13.20;99.90;;;;;;6185516;23;20203;-71
2023/04/23 01:27:30;;;;;;;35.47;25.63;;;13.20;99.90;;;;;;6185227;23;20263;-71
2023/04/23 01:29:58;;;;;;;33.13;26.85;;;13.20;99.90;;;;;;6183964;23;20282;-71
2023/04/23 01:32:25;;;;;;;30.48;25.55;;;13.20;99.90;;;;;;6183938;23;20549;-71
2023/04/23 01:34:53;;;;;;;31.17;27.42;;;13.30;99.90;;;;;;6184825;23;20168;-71
2023/04/23 01:37:22;;;;;;;35.78;26.95;;;13.10;99.90;;;;;;6185066;23;20191;-70
2023/04/23 01:39:51;;;;;;;34.75;27.33;;;13.10;99.90;;;;;;6184267;23;20207;-70
2023/04/23 01:42:18;;;;;;;33.85;27.23;;;13.10;99.90;;;;;;6185152;23;20243;-71
2023/04/23 01:44:45;;;;;;;36.88;26.42;;;13.10;99.90;;;;;;6184697;23;20496;-71
2023/04/23 01:47:12;;;;;;;30.98;24.13;;;13.20;99.90;;;;;;6185584;23;20196;-71
2023/04/23 01:49:39;;;;;;;33.08;25.33;;;13.10;99.90;;;;;;6184137;23;20207;-71
2023/04/23 01:52:06;;;;;;;31.67;25.35;;;13.10;99.90;;;;;;6185126;23;20247;-70
2023/04/23 01:54:33;;;;;;;31.25;24.55;;;13.00;99.90;;;;;;6185002;23;20505;-72
2023/04/23 01:57:01;;;;;;;33.90;25.67;;;13.00;99.90;;;;;;6184915;23;20170;-71
2023/04/23 01:59:28;;;;;;;29.20;25.75;;;12.90;99.90;;;;;;6184031;23;20202;-72
2023/04/23 02:01:55;;;;;;;27.40;22.92;;;12.90;99.90;;;;;;6185339;23;20242;-71
2023/04/23 02:04:22;;;;;;;33.80;26.30;;;12.90;99.90;;;;;;6185318;23;20246;-71
2023/04/23 02:06:50;;;;;;;32.65;25.27;;;12.90;99.90;;;;;;6185135;23;20167;-71
2023/04/23 02:09:17;;;;;;;26.98;21.63;;;12.90;99.90;;;;;;6184835;23;20227;-72
2023/04/23 02:11:44;;;;;;;28.08;21.52;;;12.90;99.90;;;;;;6184200;23;20167;-71
2023/04/23 02:14:13;;;;;;;25.17;19.83;;;12.80;99.90;;;;;;6184730;23;20161;-71
2023/04/23 02:16:40;;;;;;;24.27;18.52;;;12.70;99.90;;;;;;6184648;23;20641;-71
2023/04/23 02:19:07;;;;;;;31.67;19.92;;;12.60;99.90;;;;;;6184635;23;20299;-72
2023/04/23 02:21:33;;;;;;;25.42;20.27;;;12.50;99.90;;;;;;6183599;23;20198;-72
2023/04/23 02:24:00;;;;;;;23.88;18.67;;;12.40;99.90;;;;;;6184865;23;20203;-72
2023/04/23 02:26:27;;;;;;;27.60;20.38;;;12.40;99.90;;;;;;6184720;23;20199;-71
2023/04/23 02:28:54;;;;;;;24.30;19.80;;;12.30;99.90;;;;;;6184301;23;20207;-71
2023/04/23 02:31:23;;;;;;;28.50;22.73;;;12.20;99.90;;;;;;6184128;23;20253;-71
2023/04/23 02:33:50;;;;;;;29.13;21.88;;;12.20;99.90;;;;;;6185132;23;20259;-72
2023/04/23 02:36:17;;;;;;;25.88;19.48;;;12.20;99.90;;;;;;6185124;23;20167;-71
2023/04/23 02:38:46;;;;;;;25.55;20.52;;;12.20;99.90;;;;;;6184406;23;20288;-70
2023/04/23 02:41:13;;;;;;;29.40;21.17;;;12.10;99.90;;;;;;6184375;23;20249;-71
2023/04/23 02:43:40;;;;;;;29.92;21.75;;;12.10;99.90;;;;;;6184936;23;20247;-70
2023/04/23 02:46:08;;;;;;;27.73;21.45;;;12.00;99.90;;;;;;6186834;23;20174;-72
2023/04/23 02:48:39;;;;;;;29.10;22.35;;;12.00;99.90;;;;;;6186200;23;20194;-72
2023/04/23 02:51:06;;;;;;;27.33;21.55;;;12.00;99.90;;;;;;6186388;23;20170;-72
2023/04/23 02:53:33;;;;;;;30.80;23.40;;;11.90;99.90;;;;;;6186594;23;20242;-71
2023/04/23 02:56:01;;;;;;;29.98;21.23;;;11.90;99.90;;;;;;6186543;23;20170;-72
2023/04/23 02:58:28;;;;;;;27.50;21.17;;;11.80;99.90;;;;;;6186173;23;20214;-72
2023/04/23 03:00:56;;;;;;;26.48;23.40;;;11.80;99.90;;;;;;6186036;23;20246;-72
2023/04/23 03:03:25;;;;;;;30.77;24.52;;;11.80;99.90;;;;;;6186246;23;20230;-72
2023/04/23 03:05:54;;;;;;;31.10;24.05;;;11.80;99.90;;;;;;6186503;23;20171;-72
2023/04/23 03:08:21;;;;;;;28.15;21.25;;;11.70;99.90;;;;;;6185886;23;20600;-72
2023/04/23 03:10:48;;;;;;;30.08;23.50;;;11.70;99.90;;;;;;6185909;23;20175;-72
2023/04/23 03:13:16;;;;;;;29.00;22.60;;;11.70;99.90;;;;;;6186262;23;20379;-73
2023/04/23 03:15:43;;;;;;;29.67;22.98;;;11.60;99.90;;;;;;6186236;23;20561;-72
2023/04/23 03:18:10;;;;;;;33.70;23.25;;;11.60;99.90;;;;;;6186103;23;20189;-72
2023/04/23 03:20:37;;;;;;;31.15;23.02;;;11.60;99.90;;;;;;6184805;23;20589;-72
2023/04/23 03:23:06;;;;;;;36.90;25.65;;;11.60;99.90;;;;;;6185876;23;20247;-72
2023/04/23 03:25:33;;;;;;;32.35;23.30;;;11.60;99.90;;;;;;6185705;23;20221;-72
2023/04/23 03:28:00;;;;;;;33.75;26.13;;;11.60;99.90;;;;;;6185900;23;20265;-72
2023/04/23 03:30:27;;;;;;;28.45;23.52;;;11.60;99.90;;;;;;6185736;23;20202;-72
2023/04/23 03:32:56;;;;;;;35.05;25.17;;;11.50;99.90;;;;;;6186273;23;20203;-71
2023/04/23 03:35:23;;;;;;;35.78;26.15;;;11.50;99.90;;;;;;6186283;23;20242;-71
2023/04/23 03:37:50;;;;;;;42.67;27.40;;;11.50;99.90;;;;;;6186100;23;20232;-71
2023/04/23 03:40:20;;;;;;;33.67;25.98;;;11.50;99.90;;;;;;6185046;23;20265;-73
2023/04/23 03:42:47;;;;;;;34.50;24.40;;;11.50;99.90;;;;;;6186760;23;20568;-72
2023/04/23 03:45:15;;;;;;;35.50;26.13;;;11.50;99.90;;;;;;6186177;23;20250;-70
2023/04/23 03:47:42;;;;;;;35.75;25.85;;;11.50;99.90;;;;;;6185987;23;20514;-72
2023/04/23 03:50:11;;;;;;;32.50;23.05;;;11.50;99.90;;;;;;6185782;23;20265;-71
2023/04/23 03:52:38;;;;;;;29.35;22.00;;;11.50;99.90;;;;;;6186091;23;20178;-72
2023/04/23 03:55:06;;;;;;;33.17;23.45;;;11.40;99.90;;;;;;6186550;23;20250;-71
2023/04/23 03:57:34;;;;;;;31.20;21.45;;;11.40;99.90;;;;;;6185784;23;20168;-71
2023/04/23 04:00:01;;;;;;;29.42;22.20;;;11.40;99.90;;;;;;6185918;23;20207;-71
2023/04/23 04:02:28;;;;;;;30.75;21.38;;;11.40;99.90;;;;;;6186329;23;20242;-71
2023/04/23 04:04:55;;;;;;;29.83;22.15;;;11.30;99.90;;;;;;6185772;23;20689;-71
2023/04/23 04:07:22;;;;;;;28.40;22.17;;;11.30;99.90;;;;;;6186355;23;20167;-72
2023/04/23 04:09:49;;;;;;;30.50;22.05;;;11.40;99.90;;;;;;6185183;23;20197;-71
2023/04/23 04:12:16;;;;;;;29.10;20.88;;;11.30;99.90;;;;;;6186316;23;20486;-72
2023/04/23 04:14:45;;;;;;;30.48;22.10;;;11.30;99.90;;;;;;6186035;23;20649;-72
2023/04/23 04:17:14;;;;;;;30.92;22.85;;;11.30;99.90;;;;;;6186268;23;20172;-73
2023/04/23 04:19:41;;;;;;;31.17;23.15;;;11.20;99.90;;;;;;6185126;23;20205;-72
2023/04/23 04:22:08;;;;;;;33.92;23.50;;;11.20;99.90;;;;;;6185945;23;20165;-72
2023/04/23 04:24:36;;;;;;;30.70;23.10;;;11.10;99.90;;;;;;6185717;23;20186;-72
2023/04/23 04:27:04;;;;;;;34.70;24.65;;;11.10;99.90;;;;;;6186100;23;20171;-71
2023/04/23 04:29:32;;;;;;;32.75;23.75;;;11.10;99.90;;;;;;6184796;23;20733;-72
2023/04/23 04:32:01;;;;;;;41.42;27.48;;;11.10;99.90;;;;;;6186087;23;20163;-72
2023/04/23 04:34:28;;;;;;;32.97;25.50;;;11.10;99.90;;;;;;6186434;23;20562;-71
2023/04/23 04:36:56;;;;;;;38.40;27.50;;;11.10;99.90;;;;;;6185769;23;20624;-72
2023/04/23 04:39:23;;;;;;;34.15;25.88;;;11.10;99.90;;;;;;6185633;23;20204;-72
2023/04/23 04:41:50;;;;;;;35.53;26.92;;;11.10;99.90;;;;;;6185463;23;20237;-72
2023/04/23 04:44:17;;;;;;;33.42;25.67;;;11.10;99.90;;;;;;6185827;23;20684;-73
2023/04/23 04:46:44;;;;;;;35.03;25.75;;;11.10;99.90;;;;;;6185715;23;20593;-72
2023/04/23 04:49:13;;;;;;;34.80;26.00;;;11.20;99.90;;;;;;6185631;23;20204;-72
2023/04/23 04:51:41;;;;;;;31.38;26.20;;;11.20;99.90;;;;;;6185018;23;20239;-72
2023/04/23 04:54:08;;;;;;;33.22;24.45;;;11.20;99.90;;;;;;6185628;23;20208;-71
2023/04/23 04:56:35;;;;;;;30.17;24.40;;;11.10;99.90;;;;;;6185543;23;20664;-72
2023/04/23 04:59:03;;;;;;;43.92;25.75;;;11.30;99.90;;;;;;6185511;23;20205;-72
2023/04/23 05:01:30;;;;;;;32.95;25.55;;;11.30;99.90;;;;;;6184950;23;20244;-72
2023/04/23 05:03:57;;;;;;;38.72;27.05;;;11.30;99.90;;;;;;6185984;23;20169;-72
2023/04/23 05:06:27;;;;;;;36.13;26.17;;;11.40;99.90;;;;;;6185503;23;20265;-71
2023/04/23 05:08:54;;;;;;;36.55;27.08;;;11.40;99.90;;;;;;6185114;23;20200;-72
2023/04/23 05:11:22;;;;;;;36.65;26.95;;;11.30;99.90;;;;;;6185596;23;20325;-71
2023/04/23 05:13:49;;;;;;;33.20;25.42;;;11.40;99.90;;;;;;6186887;23;20198;-71
2023/04/23 05:16:16;;;;;;;38.92;25.10;;;11.40;99.90;;;;;;6185484;23;20208;-72
2023/04/23 05:18:43;;;;;;;35.05;25.60;;;11.50;99.90;;;;;;6185164;23;20213;-72
2023/04/23 05:21:10;;;;;;;40.15;26.52;;;11.60;99.90;;;;;;6184815;23;20197;-72
2023/04/23 05:23:38;;;;;;;38.45;29.70;;;11.50;99.90;;;;;;6185719;23;20194;-70
2023/04/23 05:26:05;;;;;;;40.33;29.77;;;11.50;99.90;;;;;;6185639;23;20174;-73
2023/04/23 05:28:32;;;;;;;38.85;28.17;;;11.40;99.90;;;;;;6184329;23;20594;-72
2023/04/23 05:30:59;;;;;;;35.72;27.27;;;11.40;99.90;;;;;;6184943;23;20242;-73
2023/04/23 05:33:27;;;;;;;35.00;26.50;;;11.40;99.90;;;;;;6184933;23;20165;-76
2023/04/23 05:35:54;;;;;;;41.55;28.13;;;11.40;99.90;;;;;;6185238;23;20238;-74
2023/04/23 05:38:21;;;;;;;39.35;27.50;;;11.40;99.90;;;;;;6185551;23;20227;-73
2023/04/23 05:40:49;;;;;;;40.10;28.05;;;11.40;99.90;;;;;;6185037;23;20250;-74
2023/04/23 05:43:16;;;;;;;36.95;26.00;;;11.30;99.90;;;;;;6185739;23;20191;-74
2023/04/23 05:45:43;;;;;;;37.58;27.52;;;11.20;99.90;;;;;;6185547;23;20246;-74
2023/04/23 05:48:10;;;;;;;37.72;27.05;;;11.20;99.90;;;;;;6184777;23;20246;-75
2023/04/23 05:50:37;;;;;;;43.17;30.60;;;11.30;99.90;;;;;;6185080;23;20196;-75
2023/04/23 05:53:04;;;;;;;36.10;25.90;;;11.40;99.90;;;;;;6184709;23;20246;-75
2023/04/23 05:55:31;;;;;;;34.08;26.40;;;11.50;99.90;;;;;;6184815;23;20626;-75
2023/04/23 05:57:59;;;;;;;36.40;27.42;;;11.60;99.90;;;;;;6185342;23;20245;-75
2023/04/23 06:00:26;;;;;;;33.40;27.40;;;11.70;99.90;;;;;;6184728;23;20213;-75
2023/04/23 06:02:53;;;;;;;32.00;26.38;;;11.80;99.90;;;;;;6184775;23;20252;-77
2023/04/23 06:05:20;;;;;;;35.35;24.95;;;11.90;99.90;;;;;;6184652;23;20662;-75
2023/04/23 06:07:47;;;;;;;31.15;25.73;;;12.00;99.90;;;;;;6184729;23;20194;-75
2023/04/23 06:10:14;;;;;;;30.73;24.63;;;12.10;99.90;;;;;;6184125;23;20274;-76
2023/04/23 06:12:42;;;;;;;32.10;25.33;;;12.20;99.90;;;;;;6184998;23;20244;-75
2023/04/23 06:15:11;;;;;;;29.85;24.00;;;12.20;99.90;;;;;;6185490;23;20167;-75
2023/04/23 06:17:38;;;;;;;34.45;25.10;;;12.30;99.90;;;;;;6185383;23;20559;-75
2023/04/23 06:20:07;;;;;;;36.33;25.58;;;12.10;99.90;;;;;;6185395;23;20204;-75
2023/04/23 06:22:34;;;;;;;36.10;25.88;;;12.30;99.90;;;;;;6187177;23;20612;-75
2023/04/23 06:25:01;;;;;;;31.80;24.75;;;12.80;99.90;;;;;;6187280;23;20246;-76
2023/04/23 06:27:32;;;;;;;29.13;23.33;;;13.30;99.90;;;;;;6187490;23;20188;-77
2023/04/23 06:29:58;;;;;;;32.05;25.33;;;13.70;99.90;;;;;;6186580;23;20203;-77
2023/04/23 06:32:27;;;;;;;29.60;21.30;;;14.00;99.90;;;;;;6187031;23;20192;-77
2023/04/23 06:34:54;;;;;;;28.40;23.48;;;14.30;99.90;;;;;;6187180;23;20240;-76
2023/04/23 06:37:21;;;;;;;27.02;24.00;;;14.20;99.90;;;;;;6187782;23;20486;-77
2023/04/23 06:39:47;;;;;;;29.92;23.20;;;14.20;99.90;;;;;;6186293;23;20288;-75
2023/04/23 06:42:16;;;;;;;27.65;23.20;;;14.40;99.90;;;;;;6186822;23;20171;-76
2023/04/23 06:44:45;;;;;;;26.25;22.35;;;14.40;99.90;;;;;;6187105;23;20176;-76
2023/04/23 06:47:12;;;;;;;30.20;23.58;;;14.40;99.90;;;;;;6187192;23;20251;-76
2023/04/23 06:49:41;;;;;;;30.98;25.23;;;14.10;99.90;;;;;;6185498;23;20223;-76
2023/04/23 06:52:08;;;;;;;29.30;23.50;;;13.70;99.90;;;;;;6187926;23;20160;-75
2023/04/23 06:54:35;;;;;;;35.28;27.33;;;13.70;99.90;;;;;;6187405;23;20244;-78
2023/04/23 06:57:02;;;;;;;33.05;24.67;;;13.70;99.90;;;;;;6187041;23;20176;-80
2023/04/23 06:59:29;;;;;;;31.35;24.20;;;14.10;99.90;;;;;;6186506;23;20278;-78
2023/04/23 07:01:56;;;;;;;34.78;25.50;;;14.10;99.90;;;;;;6187451;23;20652;-78
2023/04/23 07:04:23;;;;;;;32.35;26.55;;;14.30;99.90;;;;;;6187749;23;20168;-77
2023/04/23 07:06:51;;;;;;;33.80;24.95;;;14.30;99.90;;;;;;6188349;23;20161;-76
2023/04/23 07:09:18;;;;;;;28.83;24.30;;;14.20;99.90;;;;;;6186930;23;20553;-78
2023/04/23 07:11:47;;;;;;;31.15;23.55;;;14.50;99.90;;;;;;6185687;23;20248;-76
2023/04/23 07:14:13;;;;;;;33.17;27.35;;;14.60;99.90;;;;;;6187199;23;20200;-76
2023/04/23 07:16:40;;;;;;;32.10;23.50;;;14.70;99.90;;;;;;6188417;23;20201;-74
2023/04/23 07:19:07;;;;;;;32.13;24.92;;;15.10;99.90;;;;;;6187366;23;20212;-76
2023/04/23 07:21:35;;;;;;;30.52;25.23;;;15.30;99.90;;;;;;6186139;23;20173;-77
2023/04/23 07:24:05;;;;;;;31.93;23.40;;;15.90;99.90;;;;;;6186894;23;20204;-76
2023/04/23 07:26:32;;;;;;;31.83;24.17;;;16.80;99.90;;;;;;6186793;23;20400;-74
2023/04/23 07:29:00;;;;;;;30.27;26.53;;;17.10;99.90;;;;;;6186479;23;20506;-76
2023/04/23 07:31:27;;;;;;;32.23;26.43;;;17.60;99.90;;;;;;6185982;23;20430;-77
2023/04/23 07:33:54;;;;;;;31.73;26.33;;;18.10;99.90;;;;;;6186780;23;20463;-75
2023/04/23 07:36:22;;;;;;;32.97;26.77;;;19.00;99.90;;;;;;6197700;23;20388;-84
2023/04/23 07:38:49;;;;;;;26.60;22.60;;;19.60;98.50;;;;;;6195971;23;20439;-84
2023/04/23 07:41:18;;;;;;;29.93;25.17;;;20.80;96.10;;;;;;6192979;23;20407;-78
2023/04/23 07:43:45;;;;;;;27.43;23.60;;;21.60;92.20;;;;;;6187077;23;20858;-79
2023/04/23 07:46:12;;;;;;;26.60;23.77;;;22.10;90.40;;;;;;6186756;23;20939;-80
2023/04/23 07:48:39;;;;;;;24.50;21.90;;;22.50;88.70;;;;;;6187890;23;20502;-74
2023/04/23 07:51:06;;;;;;;28.03;24.40;;;22.20;89.20;;;;;;6184788;23;20420;-74
2023/04/23 07:53:34;;;;;;;26.60;23.20;;;22.40;89.50;;;;;;6186370;23;20427;-73
2023/04/23 07:56:01;;;;;;;28.87;23.30;;;22.40;88.40;;;;;;6186311;23;20411;-72
2023/04/23 07:58:29;;;;;;;24.57;20.80;;;21.60;86.50;;;;;;6185555;23;20539;-72
2023/04/23 08:00:56;;;;;;;25.80;22.93;;;21.10;90.30;;;;;;6186313;23;20824;-76
2023/04/23 08:03:23;;;;;;;27.93;22.30;;;21.40;88.30;;;;;;6186383;23;20454;-76
2023/04/23 08:05:50;;;;;;;25.83;23.17;;;22.00;90.20;;;;;;6181711;23;20400;-75
2023/04/23 08:08:17;;;;;;;27.10;22.87;;;22.30;88.40;;;;;;6184757;23;20388;-74
2023/04/23 08:10:45;;;;;;;28.87;23.40;;;22.30;88.80;;;;;;6185129;23;20416;-76
2023/04/23 08:13:12;;;;;;;28.83;24.73;;;22.40;88.60;;;;;;6186763;23;20471;-76
2023/04/23 08:15:40;;;;;;;27.53;24.63;;;23.10;85.70;;;;;;6187040;23;20487;-74
2023/04/23 08:18:07;;;;;;;28.47;23.97;;;23.90;83.50;;;;;;6185452;23;20426;-74
2023/04/23 08:20:34;;;;;;;26.43;23.63;;;24.20;83.40;;;;;;6185295;23;20510;-74
2023/04/23 08:23:02;;;;;;;28.90;25.70;;;24.40;81.40;;;;;;6185176;23;20463;-75
2023/04/23 08:25:30;;;;;;;29.00;24.07;;;24.10;81.10;;;;;;6185933;23;20870;-75
2023/04/23 08:27:58;;;;;;;26.10;22.07;;;24.60;79.20;;;;;;6185139;23;20419;-73
2023/04/23 08:30:25;;;;;;;26.00;23.10;;;25.00;78.90;;;;;;6184862;23;20420;-75
2023/04/23 08:32:54;;;;;;;27.30;22.27;;;25.20;76.80;;;;;;6185758;23;20872;-78
2023/04/23 08:35:22;;;;;;;23.97;21.07;;;25.10;75.10;;;;;;6185818;23;20454;-73
2023/04/23 08:37:49;;;;;;;23.00;20.60;;;25.70;75.70;;;;;;6186407;23;20638;-75
2023/04/23 08:40:17;;;;;;;24.90;22.40;;;25.10;72.20;;;;;;6184783;23;20535;-76
2023/04/23 08:42:49;;;;;;;22.17;19.67;;;25.20;74.00;;;;;;6186063;23;20394;-75
2023/04/23 08:45:17;;;;;;;22.30;19.60;;;25.70;72.10;;;;;;6186015;23;20726;-76
2023/04/23 08:47:44;;;;;;;22.77;20.00;;;25.20;72.60;;;;;;6185880;23;20780;-74
2023/04/23 08:50:15;;;;;;;22.57;20.17;;;25.50;74.60;;;;;;6185218;23;20419;-75
2023/04/23 08:52:45;;;;;;;21.83;19.53;;;25.10;73.40;;;;;;6185646;23;20423;-75
2023/04/23 08:55:14;;;;;;;20.80;18.30;;;24.90;73.70;;;;;;6187010;23;20474;-76
2023/04/23 08:57:42;;;;;;;18.23;16.10;;;25.10;73.20;;;;;;6185361;23;20486;-76
2023/04/23 09:00:11;;;;;;;22.93;20.60;;;25.60;71.30;;;;;;6184896;23;20487;-76
2023/04/23 09:02:40;;;;;;;22.27;19.90;;;26.10;71.80;;;;;;6185891;23;20388;-75
2023/04/23 09:05:17;;;;;;;18.13;16.27;;;26.50;70.30;;;;;;6185447;23;20917;-75
2023/04/23 09:07:45;;;;;;;18.23;16.40;;;26.70;68.50;;;;;;6186393;23;20427;-77
2023/04/23 09:10:13;;;;;;;18.27;16.23;;;27.00;68.00;;;;;;6186245;23;20789;-76
2023/04/23 09:12:42;;;;;;;18.20;16.30;;;26.60;65.50;;;;;;6187132;23;20427;-74
2023/04/23 09:15:11;;;;;;;16.37;14.47;;;26.50;65.80;;;;;;6187274;23;20475;-75
2023/04/23 09:17:40;;;;;;;16.40;14.13;;;26.00;66.30;;;;;;6185540;23;20388;-75
2023/04/23 09:20:09;;;;;;;16.37;14.60;;;25.90;66.00;;;;;;6185054;23;20479;-76
2023/04/23 09:22:42;;;;;;;12.50;11.20;;;25.40;66.20;;;;;;6185836;23;20439;-77
2023/04/23 09:25:10;;;;;;;16.90;13.97;;;25.70;67.70;;;;;;6186365;23;20679;-76
2023/04/23 09:27:37;;;;;;;16.03;14.30;;;25.30;67.20;;;;;;6186089;23;20416;-76
2023/04/23 09:30:06;;;;;;;17.10;14.50;;;24.90;67.40;;;;;;6188697;23;20457;-72
2023/04/23 09:32:34;;;;;;;16.20;13.03;;;24.70;68.70;;;;;;6185302;23;20396;-71
2023/04/23 09:35:07;;;;;;;16.40;13.97;;;25.10;69.40;;;;;;6185159;23;20883;-74
2023/04/23 09:37:35;;;;;;;15.40;13.80;;;24.80;67.80;;;;;;6184711;23;20866;-73
2023/04/23 09:40:08;;;;;;;15.60;14.00;;;24.10;66.90;;;;;;6184668;23;20500;-74
2023/04/23 09:42:36;;;;;;;16.33;14.30;;;23.90;70.50;;;;;;6185479;23;20483;-73
2023/04/23 09:45:06;;;;;;;15.70;13.30;;;23.90;68.50;;;;;;6184811;23;20451;-72
2023/04/23 09:47:33;;;;;;;14.50;12.97;;;24.10;70.80;;;;;;6183485;23;20396;-72
2023/04/23 09:50:01;;;;;;;13.73;12.27;;;23.80;70.40;;;;;;6184395;23;20441;-73
2023/04/23 09:52:30;;;;;;;14.17;12.70;;;24.10;69.30;;;;;;6184401;23;20427;-73
2023/04/23 09:54:58;;;;;;;15.77;13.87;;;24.20;70.60;;;;;;6185211;23;20424;-73
2023/04/23 09:57:26;;;;;;;14.63;13.10;;;24.20;69.70;;;;;;6185069;23;20415;-73
2023/04/23 09:59:56;;;;;;;16.63;14.90;;;24.20;70.60;;;;;;6183939;23;20560;-74
2023/04/23 10:02:27;;;;;;;18.07;14.70;;;24.30;70.10;;;;;;6184223;23;20721;-73
2023/04/23 10:04:55;;;;;;;14.17;12.67;;;24.30;71.80;;;;;;6184891;23;20726;-72
2023/04/23 10:07:24;;;;;;;17.77;15.83;;;24.60;71.80;;;;;;6185128;23;20427;-73
2023/04/23 10:09:50;;;;;;;16.97;13.90;;;25.10;70.10;;;;;;6183558;23;20511;-72
2023/04/23 10:12:17;;;;;;;14.43;12.93;;;24.60;70.60;;;;;;6184916;23;20424;-74
2023/04/23 10:14:52;;;;;;;13.07;11.77;;;24.00;70.60;;;;;;6184508;23;20479;-73
2023/04/23 10:17:19;;;;;;;13.17;11.77;;;23.90;71.30;;;;;;6185261;23;20387;-72
2023/04/23 10:19:50;;;;;;;12.63;11.20;;;24.10;70.20;;;;;;6183456;23;20428;-73
2023/04/23 10:22:20;;;;;;;16.13;11.83;;;23.90;71.40;;;;;;6184444;23;20450;-72
2023/04/23 10:24:54;;;;;;;14.63;13.17;;;23.80;72.00;;;;;;6184565;23;20399;-71
2023/04/23 10:27:24;;;;;;;15.03;13.43;;;23.90;72.50;;;;;;6182526;23;20941;-74
2023/04/23 10:29:53;;;;;;;14.83;13.33;;;24.00;73.30;;;;;;6183830;23;20439;-72
2023/04/23 10:32:21;;;;;;;13.50;12.13;;;23.40;72.10;;;;;;6185338;23;20466;-72
2023/04/23 10:34:49;;;;;;;14.23;11.43;;;23.00;73.70;;;;;;6184911;23;20404;-74
2023/04/23 10:37:19;;;;;;;13.47;12.07;;;22.60;75.70;;;;;;6185002;23;20921;-73
2023/04/23 10:39:50;;;;;;;16.63;13.33;;;22.40;76.40;;;;;;6183256;23;20437;-74
2023/04/23 10:42:18;;;;;;;16.53;14.83;;;22.20;77.00;;;;;;6184052;23;20518;-72
2023/04/23 10:44:45;;;;;;;17.20;13.37;;;21.40;78.10;;;;;;6184746;23;20427;-75
2023/04/23 10:47:16;;;;;;;14.93;13.43;;;21.20;79.70;;;;;;6184209;23;20448;-74
2023/04/23 10:49:44;;;;;;;15.80;13.27;;;21.20;80.60;;;;;;6183622;23;20763;-74
2023/04/23 10:52:14;;;;;;;16.30;13.97;;;21.30;82.10;;;;;;6184021;23;20413;-74
2023/04/23 10:54:42;;;;;;;19.20;15.50;;;21.10;81.90;;;;;;6185306;23;20399;-73
2023/04/23 10:57:11;;;;;;;14.97;13.03;;;20.80;82.10;;;;;;6184845;23;20427;-73
2023/04/23 10:59:40;;;;;;;15.37;13.67;;;20.60;83.30;;;;;;6183614;23;20462;-74
2023/04/23 11:02:08;;;;;;;18.57;14.60;;;20.80;82.90;;;;;;6184534;23;20505;-75
2023/04/23 11:04:41;;;;;;;18.43;15.13;;;20.80;84.50;;;;;;6184582;23;20395;-74
2023/04/23 11:07:09;;;;;;;16.70;14.87;;;21.00;83.70;;;;;;6186270;23;20935;-72
2023/04/23 11:09:41;;;;;;;16.30;14.00;;;20.90;83.40;;;;;;6189969;23;20986;-71
2023/04/23 11:12:10;;;;;;;15.80;14.13;;;20.70;84.40;;;;;;6186807;23;20391;-72
2023/04/23 11:14:47;;;;;;;16.90;13.63;;;20.70;85.50;;;;;;6186785;23;20414;-71
2023/04/23 11:17:14;;;;;;;16.83;15.10;;;21.00;84.80;;;;;;6185542;23;20399;-71
2023/04/23 11:20:10;;;;;;;15.53;13.10;;;21.40;84.80;;;;;;6185202;23;20470;-72
2023/04/23 11:22:39;;;;;;;16.23;12.93;;;21.70;82.70;;;;;;6186557;23;20847;-72
2023/04/23 11:25:09;;;;;;;13.60;11.80;;;21.70;82.30;;;;;;6185738;23;20479;-73
2023/04/23 11:27:40;;;;;;;19.57;14.23;;;21.80;82.50;;;;;;6185543;23;20503;-72
2023/04/23 11:30:12;;;;;;;19.83;14.80;;;22.10;81.80;;;;;;6185155;23;20437;-72
2023/04/23 11:32:40;;;;;;;15.83;13.30;;;21.90;81.70;;;;;;6185119;23;20470;-72
2023/04/23 11:35:10;;;;;;;16.67;14.10;;;21.20;83.10;;;;;;6185926;23;20391;-71
2023/04/23 11:37:39;;;;;;;17.60;13.60;;;20.90;83.50;;;;;;6186220;23;20395;-72
2023/04/23 11:40:09;;;;;;;17.53;15.03;;;20.70;84.60;;;;;;6185519;23;20427;-72
2023/04/23 11:42:42;;;;;;;16.83;14.10;;;20.50;85.10;;;;;;6185993;23;20479;-71
2023/04/23 11:45:19;;;;;;;17.73;14.90;;;20.60;84.90;;;;;;6159479;23;20961;-72
2023/04/23 11:47:47;;;;;;;15.60;13.90;;;21.00;85.70;;;;;;6186252;23;20402;-71
2023/04/23 11:50:19;;;;;;;16.07;12.40;;;21.20;85.00;;;;;;6185398;23;20463;-71
2023/04/23 11:52:46;;;;;;;15.47;12.90;;;21.10;84.80;;;;;;6186068;23;20417;-71
2023/04/23 11:55:13;;;;;;;14.77;11.57;;;20.90;84.20;;;;;;6186020;23;20434;-72
2023/04/23 11:57:44;;;;;;;13.67;10.20;;;20.70;84.80;;;;;;6186054;23;20391;-73
2023/04/23 12:00:14;;;;;;;14.50;12.47;;;20.60;85.10;;;;;;6184966;23;20455;-71
2023/04/23 12:02:53;;;;;;;13.73;10.53;;;20.80;85.20;;;;;;6186574;23;20402;-73
2023/04/23 12:05:22;;;;;;;14.67;12.20;;;20.90;84.40;;;;;;6186637;23;20754;-73
2023/04/23 12:07:52;;;;;;;15.10;10.57;;;20.60;85.30;;;;;;6185907;23;20449;-72
2023/04/23 12:10:20;;;;;;;14.17;11.60;;;20.50;85.80;;;;;;6185131;23;20493;-71
2023/04/23 12:12:52;;;;;;;12.73;11.17;;;20.40;85.90;;;;;;6186292;23;20475;-73
2023/04/23 12:15:19;;;;;;;10.57;9.27;;;20.60;86.40;;;;;;6185923;23;20758;-73
2023/04/23 12:17:50;;;;;;;12.60;9.97;;;20.70;86.40;;;;;;6185326;23;20406;-76
2023/04/23 12:20:19;;;;;;;12.13;9.90;;;20.60;86.10;;;;;;6185865;23;20442;-72
2023/04/23 12:22:48;;;;;;;14.10;9.53;;;20.60;87.10;;;;;;6185370;23;20414;-72
2023/04/23 12:25:15;;;;;;;10.97;8.60;;;20.50;87.00;;;;;;6185904;23;20430;-73
2023/04/23 12:27:44;;;;;;;9.93;8.80;;;20.40;87.70;;;;;;6185231;23;20450;-73
2023/04/23 12:30:12;;;;;;;10.40;9.40;;;20.60;87.10;;;;;;6185047;23;20435;-73
2023/04/23 12:32:39;;;;;;;10.97;9.70;;;20.50;87.10;;;;;;6185947;23;20442;-73